sensor_id;sensor_type;location;lat;lon;timestamp;P1;durP1;ratioP1;P2;durP2;ratioP2
30249;SDS011;17064;47.974;13.826;2023-03-13T04:02:07;2.30;;;0.65;;
30249;SDS011;17064;47.974;13.826;2023-03-13T04:07:08;3.88;;;0.68;;
30249;SDS011;17064;47.974;13.826;2023-03-13T04:12:09;3.17;;;0.70;;
30249;SDS011;17064;47.974;13.826;2023-03-13T04:17:09;2.30;;;0.63;;
30249;SDS011;17064;47.974;13.826;2023-03-13T04:22:10;1.67;;;0.68;;
30249;SDS011;17064;47.974;13.826;2023-03-13T04:27:11;6.68;;;0.73;;
30249;SDS011;17064;47.974;13.826;2023-03-13T04:32:11;2.28;;;0.73;;
30249;SDS011;17064;47.974;13.826;2023-03-13T04:37:12;4.40;;;0.45;;
30249;SDS011;17064;47.974;13.826;2023-03-13T04:42:13;2.30;;;0.57;;
30249;SDS011;17064;47.974;13.826;2023-03-13T04:47:14;5.60;;;0.60;;
30249;SDS011;17064;47.974;13.826;2023-03-13T04:52:14;2.30;;;0.85;;
30249;SDS011;17064;47.974;13.826;2023-03-13T04:57:15;1.13;;;0.60;;
30249;SDS011;17064;47.974;13.826;2023-03-13T05:02:16;4.47;;;0.60;;
30249;SDS011;17064;47.974;13.826;2023-03-13T05:07:17;7.35;;;0.93;;
30249;SDS011;17064;47.974;13.826;2023-03-13T05:12:18;3.65;;;0.63;;
30249;SDS011;17064;47.974;13.826;2023-03-13T05:17:18;3.75;;;1.60;;
30249;SDS011;17064;47.974;13.826;2023-03-13T05:22:19;5.00;;;0.90;;
30249;SDS011;17064;47.974;13.826;2023-03-13T05:27:20;3.42;;;0.75;;
30249;SDS011;17064;47.974;13.826;2023-03-13T05:32:20;5.75;;;0.70;;
30249;SDS011;17064;47.974;13.826;2023-03-13T05:37:23;2.63;;;0.57;;
30249;SDS011;17064;47.974;13.826;2023-03-13T05:42:23;3.03;;;0.52;;
30249;SDS011;17064;47.974;13.826;2023-03-13T05:47:25;1.65;;;0.57;;
30249;SDS011;17064;47.974;13.826;2023-03-13T05:52:26;2.03;;;0.60;;
30249;SDS011;17064;47.974;13.826;2023-03-13T05:57:27;4.40;;;0.40;;
30249;SDS011;17064;47.974;13.826;2023-03-13T06:02:28;4.78;;;0.50;;
30249;SDS011;17064;47.974;13.826;2023-03-13T06:07:29;1.30;;;0.50;;
30249;SDS011;17064;47.974;13.826;2023-03-13T06:12:30;3.28;;;0.60;;
30249;SDS011;17064;47.974;13.826;2023-03-13T06:17:30;5.07;;;1.02;;
30249;SDS011;17064;47.974;13.826;2023-03-13T06:22:31;2.80;;;0.70;;
30249;SDS011;17064;47.974;13.826;2023-03-13T06:27:32;2.47;;;0.60;;
30249;SDS011;17064;47.974;13.826;2023-03-13T06:32:33;3.75;;;0.50;;
30249;SDS011;17064;47.974;13.826;2023-03-13T06:37:33;1.60;;;0.40;;
30249;SDS011;17064;47.974;13.826;2023-03-13T06:42:34;4.20;;;0.68;;
30249;SDS011;17064;47.974;13.826;2023-03-13T06:47:35;2.90;;;0.90;;
30249;SDS011;17064;47.974;13.826;2023-03-13T06:52:35;0.43;;;0.35;;
30249;SDS011;17064;47.974;13.826;2023-03-13T06:57:37;1.67;;;0.30;;
30249;SDS011;17064;47.974;13.826;2023-03-13T07:02:37;1.42;;;0.47;;
30249;SDS011;17064;47.974;13.826;2023-03-13T07:07:38;1.85;;;0.30;;
30249;SDS011;17064;47.974;13.826;2023-03-13T07:12:40;2.67;;;0.40;;
30249;SDS011;17064;47.974;13.826;2023-03-13T07:17:41;6.45;;;0.60;;
30249;SDS011;17064;47.974;13.826;2023-03-13T07:22:41;1.70;;;0.47;;
30249;SDS011;17064;47.974;13.826;2023-03-13T07:27:42;1.55;;;0.40;;
30249;SDS011;17064;47.974;13.826;2023-03-13T07:32:43;3.72;;;0.60;;
30249;SDS011;17064;47.974;13.826;2023-03-13T07:37:44;0.90;;;0.43;;
30249;SDS011;17064;47.974;13.826;2023-03-13T07:42:44;1.20;;;0.47;;
30249;SDS011;17064;47.974;13.826;2023-03-13T07:47:45;4.10;;;0.40;;
30249;SDS011;17064;47.974;13.826;2023-03-13T07:52:46;4.78;;;0.50;;
30249;SDS011;17064;47.974;13.826;2023-03-13T07:57:46;2.80;;;0.55;;
30249;SDS011;17064;47.974;13.826;2023-03-13T08:02:47;1.70;;;0.32;;
30249;SDS011;17064;47.974;13.826;2023-03-13T08:07:48;3.88;;;0.63;;
30249;SDS011;17064;47.974;13.826;2023-03-13T08:12:48;3.13;;;0.70;;
30249;SDS011;17064;47.974;13.826;2023-03-13T08:17:49;3.97;;;0.55;;
30249;SDS011;17064;47.974;13.826;2023-03-13T08:22:51;1.73;;;0.50;;
30249;SDS011;17064;47.974;13.826;2023-03-13T08:27:53;1.27;;;0.20;;
30249;SDS011;17064;47.974;13.826;2023-03-13T08:32:54;3.42;;;0.40;;
30249;SDS011;17064;47.974;13.826;2023-03-13T08:37:55;5.10;;;1.75;;
30249;SDS011;17064;47.974;13.826;2023-03-13T08:42:56;4.65;;;0.43;;
30249;SDS011;17064;47.974;13.826;2023-03-13T08:47:56;1.75;;;0.47;;
30249;SDS011;17064;47.974;13.826;2023-03-13T08:52:57;1.25;;;0.60;;
30249;SDS011;17064;47.974;13.826;2023-03-13T08:57:58;1.95;;;0.43;;
30249;SDS011;17064;47.974;13.826;2023-03-13T09:02:58;1.20;;;0.30;;
30249;SDS011;17064;47.974;13.826;2023-03-13T09:07:59;2.40;;;0.40;;
30249;SDS011;17064;47.974;13.826;2023-03-13T09:13:00;2.10;;;0.43;;
30249;SDS011;17064;47.974;13.826;2023-03-13T09:18:01;0.22;;;0.22;;
30249;SDS011;17064;47.974;13.826;2023-03-13T09:23:02;1.13;;;0.43;;
30249;SDS011;17064;47.974;13.826;2023-03-13T09:28:03;2.30;;;0.40;;
30249;SDS011;17064;47.974;13.826;2023-03-13T09:33:04;4.97;;;0.50;;
30249;SDS011;17064;47.974;13.826;2023-03-13T09:38:05;2.53;;;0.50;;
30249;SDS011;17064;47.974;13.826;2023-03-13T09:43:11;2.15;;;0.47;;
30249;SDS011;17064;47.974;13.826;2023-03-13T09:59:15;2.53;;;0.30;;
30249;SDS011;17064;47.974;13.826;2023-03-13T10:09:19;4.47;;;0.50;;
30249;SDS011;17064;47.974;13.826;2023-03-13T10:14:27;2.50;;;0.73;;
30249;SDS011;17064;47.974;13.826;2023-03-13T10:19:35;1.77;;;0.40;;
30249;SDS011;17064;47.974;13.826;2023-03-13T10:25:23;1.35;;;0.50;;
30249;SDS011;17064;47.974;13.826;2023-03-13T10:35:41;1.90;;;0.40;;
30249;SDS011;17064;47.974;13.826;2023-03-13T10:40:43;0.70;;;0.60;;
30249;SDS011;17064;47.974;13.826;2023-03-13T10:45:55;2.70;;;0.45;;
30249;SDS011;17064;47.974;13.826;2023-03-13T10:51:03;2.88;;;0.70;;
30249;SDS011;17064;47.974;13.826;2023-03-13T10:56:25;3.22;;;0.88;;
30249;SDS011;17064;47.974;13.826;2023-03-13T11:01:29;7.57;;;0.35;;
30249;SDS011;17064;47.974;13.826;2023-03-13T11:06:41;1.02;;;0.38;;
30249;SDS011;17064;47.974;13.826;2023-03-13T11:12:03;1.95;;;0.52;;
30249;SDS011;17064;47.974;13.826;2023-03-13T11:32:54;0.63;;;0.43;;
30249;SDS011;17064;47.974;13.826;2023-03-13T11:37:59;1.65;;;0.65;;
30249;SDS011;17064;47.974;13.826;2023-03-13T11:43:18;2.63;;;0.50;;
30249;SDS011;17064;47.974;13.826;2023-03-13T12:04:36;2.63;;;0.47;;
30249;SDS011;17064;47.974;13.826;2023-03-13T12:09:45;1.27;;;0.40;;
30249;SDS011;17064;47.974;13.826;2023-03-13T12:14:55;2.67;;;0.75;;
30249;SDS011;17064;47.974;13.826;2023-03-13T12:25:27;5.60;;;1.60;;
30249;SDS011;17064;47.974;13.826;2023-03-13T12:30:49;11.02;;;1.95;;
30249;SDS011;17064;47.974;13.826;2023-03-13T12:37:00;5.60;;;2.10;;
30249;SDS011;17064;47.974;13.826;2023-03-13T12:47:32;7.65;;;2.33;;
30249;SDS011;17064;47.974;13.826;2023-03-13T13:03:37;5.38;;;2.33;;
30249;SDS011;17064;47.974;13.826;2023-03-13T13:09:05;11.10;;;3.40;;
30249;SDS011;17064;47.974;13.826;2023-03-13T13:25:26;12.45;;;3.85;;
30249;SDS011;17064;47.974;13.826;2023-03-13T13:29:52;5.68;;;2.90;;
30249;SDS011;17064;47.974;13.826;2023-03-13T13:34:55;4.97;;;2.50;;
30249;SDS011;17064;47.974;13.826;2023-03-13T13:50:23;8.48;;;2.42;;
30249;SDS011;17064;47.974;13.826;2023-03-13T13:55:31;4.20;;;2.08;;
30249;SDS011;17064;47.974;13.826;2023-03-13T14:00:45;4.73;;;2.63;;
30249;SDS011;17064;47.974;13.826;2023-03-13T14:05:54;9.07;;;2.88;;
30249;SDS011;17064;47.974;13.826;2023-03-13T14:21:24;5.03;;;2.15;;
30249;SDS011;17064;47.974;13.826;2023-03-13T14:26:27;4.78;;;2.90;;
30249;SDS011;17064;47.974;13.826;2023-03-13T14:31:36;7.13;;;3.60;;
30249;SDS011;17064;47.974;13.826;2023-03-13T14:37:12;10.38;;;4.10;;
30249;SDS011;17064;47.974;13.826;2023-03-13T14:42:25;7.68;;;4.05;;
30249;SDS011;17064;47.974;13.826;2023-03-13T14:47:26;7.25;;;3.83;;
30249;SDS011;17064;47.974;13.826;2023-03-13T14:52:31;11.13;;;3.80;;
30249;SDS011;17064;47.974;13.826;2023-03-13T14:57:34;7.13;;;3.63;;
30249;SDS011;17064;47.974;13.826;2023-03-13T15:02:35;6.93;;;3.28;;
30249;SDS011;17064;47.974;13.826;2023-03-13T15:12:41;8.38;;;3.20;;
30249;SDS011;17064;47.974;13.826;2023-03-13T15:17:43;4.80;;;2.70;;
30249;SDS011;17064;47.974;13.826;2023-03-13T15:22:44;6.32;;;2.70;;
30249;SDS011;17064;47.974;13.826;2023-03-13T15:27:46;7.85;;;2.50;;
30249;SDS011;17064;47.974;13.826;2023-03-13T15:32:47;5.80;;;2.60;;
30249;SDS011;17064;47.974;13.826;2023-03-13T15:37:49;4.88;;;2.50;;
30249;SDS011;17064;47.974;13.826;2023-03-13T15:42:50;5.50;;;2.50;;
30249;SDS011;17064;47.974;13.826;2023-03-13T15:47:52;5.72;;;2.20;;
30249;SDS011;17064;47.974;13.826;2023-03-13T15:52:53;3.63;;;2.17;;
30249;SDS011;17064;47.974;13.826;2023-03-13T15:57:54;4.93;;;2.17;;
30249;SDS011;17064;47.974;13.826;2023-03-13T16:02:54;5.82;;;1.80;;
30249;SDS011;17064;47.974;13.826;2023-03-13T16:07:55;3.90;;;1.98;;
30249;SDS011;17064;47.974;13.826;2023-03-13T16:12:56;4.63;;;2.00;;
30249;SDS011;17064;47.974;13.826;2023-03-13T16:17:57;4.30;;;2.25;;
30249;SDS011;17064;47.974;13.826;2023-03-13T16:22:57;5.18;;;2.30;;
30249;SDS011;17064;47.974;13.826;2023-03-13T16:28:02;3.08;;;2.10;;
30249;SDS011;17064;47.974;13.826;2023-03-13T16:33:03;3.63;;;2.20;;
30249;SDS011;17064;47.974;13.826;2023-03-13T16:38:04;2.53;;;1.83;;
30249;SDS011;17064;47.974;13.826;2023-03-13T16:43:10;4.50;;;2.13;;
30249;SDS011;17064;47.974;13.826;2023-03-13T16:48:12;6.13;;;2.53;;
30249;SDS011;17064;47.974;13.826;2023-03-13T16:53:18;5.95;;;2.28;;
30249;SDS011;17064;47.974;13.826;2023-03-13T16:58:18;6.50;;;2.45;;
30249;SDS011;17064;47.974;13.826;2023-03-13T17:03:19;3.13;;;1.80;;
30249;SDS011;17064;47.974;13.826;2023-03-13T17:08:35;5.07;;;2.53;;
30249;SDS011;17064;47.974;13.826;2023-03-13T17:13:36;4.95;;;2.05;;
30249;SDS011;17064;47.974;13.826;2023-03-13T17:18:37;3.05;;;1.80;;
30249;SDS011;17064;47.974;13.826;2023-03-13T17:23:38;5.70;;;2.20;;
30249;SDS011;17064;47.974;13.826;2023-03-13T17:28:38;7.97;;;2.85;;
30249;SDS011;17064;47.974;13.826;2023-03-13T17:33:39;7.30;;;2.47;;
30249;SDS011;17064;47.974;13.826;2023-03-13T17:38:40;3.40;;;2.47;;
30249;SDS011;17064;47.974;13.826;2023-03-13T17:43:42;5.45;;;2.45;;
30249;SDS011;17064;47.974;13.826;2023-03-13T17:48:43;16.63;;;3.55;;
30249;SDS011;17064;47.974;13.826;2023-03-13T17:53:45;4.78;;;2.25;;
30249;SDS011;17064;47.974;13.826;2023-03-13T17:58:47;7.65;;;2.42;;
30249;SDS011;17064;47.974;13.826;2023-03-13T18:03:50;4.60;;;2.17;;
30249;SDS011;17064;47.974;13.826;2023-03-13T18:08:52;4.70;;;2.20;;
30249;SDS011;17064;47.974;13.826;2023-03-13T18:13:54;4.60;;;2.67;;
30249;SDS011;17064;47.974;13.826;2023-03-13T18:18:56;8.75;;;3.92;;
30249;SDS011;17064;47.974;13.826;2023-03-13T18:23:56;9.63;;;4.45;;
30249;SDS011;17064;47.974;13.826;2023-03-13T18:28:58;11.25;;;5.15;;
30249;SDS011;17064;47.974;13.826;2023-03-13T18:34:00;14.73;;;5.70;;
30249;SDS011;17064;47.974;13.826;2023-03-13T18:39:04;12.60;;;6.00;;
30249;SDS011;17064;47.974;13.826;2023-03-13T18:44:05;13.95;;;7.22;;
30249;SDS011;17064;47.974;13.826;2023-03-13T18:49:11;14.38;;;6.15;;
30249;SDS011;17064;47.974;13.826;2023-03-13T18:54:19;13.70;;;6.03;;
30249;SDS011;17064;47.974;13.826;2023-03-13T18:59:20;13.63;;;6.50;;
30249;SDS011;17064;47.974;13.826;2023-03-13T19:04:22;18.27;;;7.60;;
30249;SDS011;17064;47.974;13.826;2023-03-13T19:09:23;15.30;;;7.45;;
30249;SDS011;17064;47.974;13.826;2023-03-13T19:14:24;13.30;;;6.72;;
30249;SDS011;17064;47.974;13.826;2023-03-13T19:19:26;13.13;;;6.68;;
30249;SDS011;17064;47.974;13.826;2023-03-13T19:24:27;16.63;;;7.18;;
30249;SDS011;17064;47.974;13.826;2023-03-13T19:29:29;12.50;;;6.38;;
30249;SDS011;17064;47.974;13.826;2023-03-13T19:34:33;12.63;;;6.25;;
30249;SDS011;17064;47.974;13.826;2023-03-13T19:39:33;18.60;;;6.32;;
30249;SDS011;17064;47.974;13.826;2023-03-13T19:44:35;15.43;;;6.20;;
30249;SDS011;17064;47.974;13.826;2023-03-13T19:49:36;12.85;;;6.85;;
30249;SDS011;17064;47.974;13.826;2023-03-13T19:54:37;12.15;;;6.90;;
30249;SDS011;17064;47.974;13.826;2023-03-13T19:59:40;13.43;;;7.53;;
30249;SDS011;17064;47.974;13.826;2023-03-13T20:04:41;22.53;;;10.63;;
30249;SDS011;17064;47.974;13.826;2023-03-13T20:09:44;18.08;;;8.82;;
30249;SDS011;17064;47.974;13.826;2023-03-13T20:14:46;16.33;;;8.20;;
30249;SDS011;17064;47.974;13.826;2023-03-13T20:19:47;13.52;;;7.53;;
30249;SDS011;17064;47.974;13.826;2023-03-13T20:24:48;15.98;;;8.35;;
30249;SDS011;17064;47.974;13.826;2023-03-13T20:29:50;16.88;;;7.88;;
30249;SDS011;17064;47.974;13.826;2023-03-13T20:34:51;14.52;;;8.35;;
30249;SDS011;17064;47.974;13.826;2023-03-13T20:39:52;18.92;;;8.73;;
30249;SDS011;17064;47.974;13.826;2023-03-13T20:44:53;14.82;;;8.15;;
30249;SDS011;17064;47.974;13.826;2023-03-13T20:49:55;16.80;;;8.05;;
30249;SDS011;17064;47.974;13.826;2023-03-13T20:54:56;14.73;;;7.32;;
30249;SDS011;17064;47.974;13.826;2023-03-13T20:59:57;17.13;;;8.13;;
30249;SDS011;17064;47.974;13.826;2023-03-13T21:05:01;14.93;;;8.63;;
30249;SDS011;17064;47.974;13.826;2023-03-13T21:10:02;16.73;;;8.43;;
30249;SDS011;17064;47.974;13.826;2023-03-13T21:15:04;18.77;;;9.63;;
30249;SDS011;17064;47.974;13.826;2023-03-13T21:20:07;19.48;;;10.82;;
30249;SDS011;17064;47.974;13.826;2023-03-13T21:25:11;18.98;;;9.15;;
30249;SDS011;17064;47.974;13.826;2023-03-13T21:30:14;17.90;;;9.48;;
30249;SDS011;17064;47.974;13.826;2023-03-13T21:35:17;17.77;;;10.60;;
30249;SDS011;17064;47.974;13.826;2023-03-13T21:40:18;18.70;;;10.90;;
30249;SDS011;17064;47.974;13.826;2023-03-13T21:45:19;17.63;;;9.98;;
30249;SDS011;17064;47.974;13.826;2023-03-13T21:50:20;21.15;;;10.65;;
30249;SDS011;17064;47.974;13.826;2023-03-13T21:55:21;19.55;;;10.07;;
30249;SDS011;17064;47.974;13.826;2023-03-13T22:00:22;22.73;;;11.50;;
30249;SDS011;17064;47.974;13.826;2023-03-13T22:05:23;22.60;;;10.65;;
30249;SDS011;17064;47.974;13.826;2023-03-13T22:10:24;26.50;;;11.52;;
30249;SDS011;17064;47.974;13.826;2023-03-13T22:15:25;23.60;;;11.75;;
30249;SDS011;17064;47.974;13.826;2023-03-13T22:20:25;19.17;;;10.10;;
30249;SDS011;17064;47.974;13.826;2023-03-13T22:25:26;19.55;;;9.77;;
30249;SDS011;17064;47.974;13.826;2023-03-13T22:30:27;17.20;;;9.90;;
30249;SDS011;17064;47.974;13.826;2023-03-13T22:35:28;22.60;;;9.88;;
30249;SDS011;17064;47.974;13.826;2023-03-13T22:40:28;20.60;;;10.05;;
30249;SDS011;17064;47.974;13.826;2023-03-13T22:45:29;18.67;;;9.95;;
30249;SDS011;17064;47.974;13.826;2023-03-13T22:50:33;17.27;;;10.52;;
30249;SDS011;17064;47.974;13.826;2023-03-13T22:55:34;22.73;;;10.98;;
30249;SDS011;17064;47.974;13.826;2023-03-13T23:00:36;24.88;;;11.75;;
30249;SDS011;17064;47.974;13.826;2023-03-13T23:05:37;21.00;;;10.82;;
30249;SDS011;17064;47.974;13.826;2023-03-13T23:10:41;24.55;;;11.50;;
30249;SDS011;17064;47.974;13.826;2023-03-13T23:15:42;20.70;;;10.55;;
30249;SDS011;17064;47.974;13.826;2023-03-13T23:20:43;21.92;;;10.95;;
30249;SDS011;17064;47.974;13.826;2023-03-13T23:25:44;20.10;;;10.85;;
30249;SDS011;17064;47.974;13.826;2023-03-13T23:30:45;17.45;;;9.57;;
30249;SDS011;17064;47.974;13.826;2023-03-13T23:35:46;23.15;;;10.80;;
30249;SDS011;17064;47.974;13.826;2023-03-13T23:40:47;16.67;;;9.10;;
30249;SDS011;17064;47.974;13.826;2023-03-13T23:45:47;22.60;;;9.80;;
30249;SDS011;17064;47.974;13.826;2023-03-13T23:50:48;17.58;;;8.38;;
30249;SDS011;17064;47.974;13.826;2023-03-13T23:55:56;18.65;;;8.45;;
